sensor_id;sensor_type;location;lat;lon;timestamp;P1;durP1;ratioP1;P2;durP2;ratioP2
75261;SDS011;63859;51.064;4.580;2023-09-19T00:00:16;13.77;;;3.03;;
75261;SDS011;63859;51.064;4.580;2023-09-19T00:02:45;13.82;;;3.38;;
75261;SDS011;63859;51.064;4.580;2023-09-19T00:05:17;14.18;;;2.70;;
75261;SDS011;63859;51.064;4.580;2023-09-19T00:07:42;17.48;;;2.90;;
75261;SDS011;63859;51.064;4.580;2023-09-19T00:10:10;12.63;;;2.90;;
75261;SDS011;63859;51.064;4.580;2023-09-19T00:12:35;13.18;;;2.85;;
75261;SDS011;63859;51.064;4.580;2023-09-19T00:15:01;10.43;;;2.80;;
75261;SDS011;63859;51.064;4.580;2023-09-19T00:17:30;13.70;;;3.05;;
75261;SDS011;63859;51.064;4.580;2023-09-19T00:19:57;15.10;;;3.47;;
75261;SDS011;63859;51.064;4.580;2023-09-19T00:22:24;11.70;;;2.80;;
75261;SDS011;63859;51.064;4.580;2023-09-19T00:24:51;8.82;;;3.17;;
75261;SDS011;63859;51.064;4.580;2023-09-19T00:27:17;14.23;;;2.60;;
75261;SDS011;63859;51.064;4.580;2023-09-19T00:29:43;16.13;;;3.45;;
75261;SDS011;63859;51.064;4.580;2023-09-19T00:32:09;16.63;;;3.63;;
75261;SDS011;63859;51.064;4.580;2023-09-19T00:34:35;12.55;;;2.78;;
75261;SDS011;63859;51.064;4.580;2023-09-19T00:37:00;9.18;;;2.95;;
75261;SDS011;63859;51.064;4.580;2023-09-19T00:39:26;18.67;;;2.88;;
75261;SDS011;63859;51.064;4.580;2023-09-19T00:41:56;11.93;;;3.30;;
75261;SDS011;63859;51.064;4.580;2023-09-19T00:44:22;20.10;;;2.97;;
75261;SDS011;63859;51.064;4.580;2023-09-19T00:46:48;11.85;;;2.80;;
75261;SDS011;63859;51.064;4.580;2023-09-19T00:49:15;9.18;;;2.45;;
75261;SDS011;63859;51.064;4.580;2023-09-19T00:51:41;14.77;;;3.47;;
75261;SDS011;63859;51.064;4.580;2023-09-19T00:54:12;12.93;;;3.20;;
75261;SDS011;63859;51.064;4.580;2023-09-19T00:56:43;10.93;;;3.08;;
75261;SDS011;63859;51.064;4.580;2023-09-19T00:59:10;14.00;;;3.33;;
75261;SDS011;63859;51.064;4.580;2023-09-19T01:01:36;11.50;;;2.88;;
75261;SDS011;63859;51.064;4.580;2023-09-19T01:04:05;9.90;;;2.40;;
75261;SDS011;63859;51.064;4.580;2023-09-19T01:06:31;9.63;;;2.80;;
75261;SDS011;63859;51.064;4.580;2023-09-19T01:08:57;19.25;;;2.97;;
75261;SDS011;63859;51.064;4.580;2023-09-19T01:11:28;13.30;;;2.95;;
75261;SDS011;63859;51.064;4.580;2023-09-19T01:16:42;12.25;;;2.78;;
75261;SDS011;63859;51.064;4.580;2023-09-19T01:22:21;14.95;;;3.13;;
75261;SDS011;63859;51.064;4.580;2023-09-19T01:31:01;17.35;;;3.00;;
75261;SDS011;63859;51.064;4.580;2023-09-19T01:33:28;17.33;;;3.45;;
75261;SDS011;63859;51.064;4.580;2023-09-19T01:36:16;15.45;;;3.20;;
75261;SDS011;63859;51.064;4.580;2023-09-19T01:38:42;11.52;;;2.85;;
75261;SDS011;63859;51.064;4.580;2023-09-19T01:41:11;15.43;;;2.88;;
75261;SDS011;63859;51.064;4.580;2023-09-19T01:43:41;14.80;;;2.78;;
75261;SDS011;63859;51.064;4.580;2023-09-19T01:52:07;14.38;;;2.85;;
75261;SDS011;63859;51.064;4.580;2023-09-19T01:54:48;14.80;;;3.25;;
75261;SDS011;63859;51.064;4.580;2023-09-19T02:00:03;11.85;;;2.72;;
75261;SDS011;63859;51.064;4.580;2023-09-19T02:02:34;17.00;;;2.72;;
75261;SDS011;63859;51.064;4.580;2023-09-19T02:05:02;16.70;;;2.92;;
75261;SDS011;63859;51.064;4.580;2023-09-19T02:07:29;13.63;;;2.95;;
75261;SDS011;63859;51.064;4.580;2023-09-19T02:09:57;14.98;;;3.05;;
75261;SDS011;63859;51.064;4.580;2023-09-19T02:12:25;15.00;;;2.65;;
75261;SDS011;63859;51.064;4.580;2023-09-19T02:14:51;10.60;;;3.08;;
75261;SDS011;63859;51.064;4.580;2023-09-19T02:17:17;9.75;;;3.13;;
75261;SDS011;63859;51.064;4.580;2023-09-19T02:19:42;14.77;;;3.25;;
75261;SDS011;63859;51.064;4.580;2023-09-19T02:22:08;15.20;;;2.50;;
75261;SDS011;63859;51.064;4.580;2023-09-19T02:24:35;14.35;;;2.60;;
75261;SDS011;63859;51.064;4.580;2023-09-19T02:27:02;11.80;;;2.63;;
75261;SDS011;63859;51.064;4.580;2023-09-19T02:29:31;17.30;;;2.67;;
75261;SDS011;63859;51.064;4.580;2023-09-19T02:31:59;15.45;;;2.90;;
75261;SDS011;63859;51.064;4.580;2023-09-19T02:34:26;13.23;;;3.00;;
75261;SDS011;63859;51.064;4.580;2023-09-19T02:36:52;14.90;;;2.97;;
75261;SDS011;63859;51.064;4.580;2023-09-19T02:39:19;11.48;;;3.10;;
75261;SDS011;63859;51.064;4.580;2023-09-19T02:41:45;12.68;;;2.67;;
75261;SDS011;63859;51.064;4.580;2023-09-19T02:44:11;11.25;;;2.72;;
75261;SDS011;63859;51.064;4.580;2023-09-19T02:46:37;10.50;;;3.15;;
75261;SDS011;63859;51.064;4.580;2023-09-19T02:49:03;14.02;;;2.95;;
75261;SDS011;63859;51.064;4.580;2023-09-19T02:51:32;10.05;;;2.85;;
75261;SDS011;63859;51.064;4.580;2023-09-19T02:54:01;8.25;;;2.50;;
75261;SDS011;63859;51.064;4.580;2023-09-19T02:56:28;11.57;;;3.40;;
75261;SDS011;63859;51.064;4.580;2023-09-19T02:58:55;9.73;;;2.88;;
75261;SDS011;63859;51.064;4.580;2023-09-19T03:01:21;15.88;;;2.97;;
75261;SDS011;63859;51.064;4.580;2023-09-19T03:03:47;17.73;;;3.65;;
75261;SDS011;63859;51.064;4.580;2023-09-19T03:06:13;11.55;;;2.83;;
75261;SDS011;63859;51.064;4.580;2023-09-19T03:08:39;11.02;;;2.58;;
75261;SDS011;63859;51.064;4.580;2023-09-19T03:11:07;15.63;;;3.60;;
75261;SDS011;63859;51.064;4.580;2023-09-19T03:13:53;12.05;;;2.85;;
75261;SDS011;63859;51.064;4.580;2023-09-19T03:16:19;14.40;;;3.30;;
75261;SDS011;63859;51.064;4.580;2023-09-19T03:18:46;12.45;;;3.28;;
75261;SDS011;63859;51.064;4.580;2023-09-19T03:21:14;14.38;;;2.95;;
75261;SDS011;63859;51.064;4.580;2023-09-19T03:23:40;15.10;;;2.83;;
75261;SDS011;63859;51.064;4.580;2023-09-19T03:26:10;17.83;;;3.25;;
75261;SDS011;63859;51.064;4.580;2023-09-19T03:28:42;12.57;;;3.05;;
75261;SDS011;63859;51.064;4.580;2023-09-19T03:31:08;18.70;;;3.22;;
75261;SDS011;63859;51.064;4.580;2023-09-19T03:33:34;14.88;;;2.85;;
75261;SDS011;63859;51.064;4.580;2023-09-19T03:36:01;10.13;;;2.60;;
75261;SDS011;63859;51.064;4.580;2023-09-19T03:38:30;13.90;;;3.35;;
75261;SDS011;63859;51.064;4.580;2023-09-19T03:40:56;9.40;;;2.85;;
75261;SDS011;63859;51.064;4.580;2023-09-19T03:43:22;11.80;;;3.13;;
75261;SDS011;63859;51.064;4.580;2023-09-19T03:45:48;12.65;;;2.47;;
75261;SDS011;63859;51.064;4.580;2023-09-19T03:48:15;12.02;;;2.72;;
75261;SDS011;63859;51.064;4.580;2023-09-19T03:50:40;11.52;;;3.20;;
75261;SDS011;63859;51.064;4.580;2023-09-19T03:53:06;12.52;;;2.65;;
75261;SDS011;63859;51.064;4.580;2023-09-19T03:55:32;15.18;;;3.28;;
75261;SDS011;63859;51.064;4.580;2023-09-19T03:58:00;11.40;;;2.90;;
75261;SDS011;63859;51.064;4.580;2023-09-19T04:00:29;9.23;;;2.45;;
75261;SDS011;63859;51.064;4.580;2023-09-19T04:02:55;9.75;;;2.70;;
75261;SDS011;63859;51.064;4.580;2023-09-19T04:05:22;9.05;;;2.60;;
75261;SDS011;63859;51.064;4.580;2023-09-19T04:07:48;12.85;;;3.20;;
75261;SDS011;63859;51.064;4.580;2023-09-19T04:10:15;11.38;;;2.92;;
75261;SDS011;63859;51.064;4.580;2023-09-19T04:12:41;19.00;;;2.97;;
75261;SDS011;63859;51.064;4.580;2023-09-19T04:15:19;12.15;;;2.80;;
75261;SDS011;63859;51.064;4.580;2023-09-19T04:17:48;9.13;;;2.95;;
75261;SDS011;63859;51.064;4.580;2023-09-19T04:20:18;19.20;;;3.35;;
75261;SDS011;63859;51.064;4.580;2023-09-19T04:22:50;16.98;;;2.95;;
75261;SDS011;63859;51.064;4.580;2023-09-19T04:25:16;15.02;;;3.05;;
75261;SDS011;63859;51.064;4.580;2023-09-19T04:27:41;13.57;;;2.90;;
75261;SDS011;63859;51.064;4.580;2023-09-19T04:30:09;13.20;;;2.90;;
75261;SDS011;63859;51.064;4.580;2023-09-19T04:32:36;18.60;;;2.88;;
75261;SDS011;63859;51.064;4.580;2023-09-19T04:35:05;11.40;;;2.97;;
75261;SDS011;63859;51.064;4.580;2023-09-19T04:37:40;9.50;;;2.95;;
75261;SDS011;63859;51.064;4.580;2023-09-19T04:40:09;18.95;;;3.88;;
75261;SDS011;63859;51.064;4.580;2023-09-19T04:42:42;19.70;;;3.38;;
75261;SDS011;63859;51.064;4.580;2023-09-19T04:45:08;17.80;;;3.50;;
75261;SDS011;63859;51.064;4.580;2023-09-19T04:47:35;13.90;;;3.63;;
75261;SDS011;63859;51.064;4.580;2023-09-19T04:50:13;13.68;;;3.00;;
75261;SDS011;63859;51.064;4.580;2023-09-19T04:52:41;14.40;;;3.40;;
75261;SDS011;63859;51.064;4.580;2023-09-19T04:55:11;17.85;;;3.20;;
75261;SDS011;63859;51.064;4.580;2023-09-19T04:57:42;19.17;;;4.05;;
75261;SDS011;63859;51.064;4.580;2023-09-19T05:00:22;16.67;;;3.25;;
75261;SDS011;63859;51.064;4.580;2023-09-19T05:02:55;19.20;;;3.20;;
75261;SDS011;63859;51.064;4.580;2023-09-19T05:05:21;11.75;;;2.97;;
75261;SDS011;63859;51.064;4.580;2023-09-19T05:07:48;18.55;;;3.67;;
75261;SDS011;63859;51.064;4.580;2023-09-19T05:10:15;11.63;;;2.88;;
75261;SDS011;63859;51.064;4.580;2023-09-19T05:12:44;13.90;;;3.30;;
75261;SDS011;63859;51.064;4.580;2023-09-19T05:15:13;11.65;;;3.10;;
75261;SDS011;63859;51.064;4.580;2023-09-19T05:17:40;14.48;;;3.15;;
75261;SDS011;63859;51.064;4.580;2023-09-19T05:20:06;11.50;;;3.28;;
75261;SDS011;63859;51.064;4.580;2023-09-19T05:22:39;13.18;;;2.85;;
75261;SDS011;63859;51.064;4.580;2023-09-19T05:25:06;21.02;;;3.80;;
75261;SDS011;63859;51.064;4.580;2023-09-19T05:27:32;11.60;;;2.53;;
75261;SDS011;63859;51.064;4.580;2023-09-19T05:29:58;17.25;;;3.55;;
75261;SDS011;63859;51.064;4.580;2023-09-19T05:32:24;18.65;;;3.08;;
75261;SDS011;63859;51.064;4.580;2023-09-19T05:34:50;16.13;;;3.45;;
75261;SDS011;63859;51.064;4.580;2023-09-19T05:37:21;20.55;;;3.10;;
75261;SDS011;63859;51.064;4.580;2023-09-19T05:39:48;11.65;;;3.00;;
75261;SDS011;63859;51.064;4.580;2023-09-19T05:42:14;12.10;;;3.17;;
75261;SDS011;63859;51.064;4.580;2023-09-19T05:44:40;18.92;;;3.63;;
75261;SDS011;63859;51.064;4.580;2023-09-19T05:47:05;17.70;;;3.42;;
75261;SDS011;63859;51.064;4.580;2023-09-19T05:49:34;13.15;;;3.10;;
75261;SDS011;63859;51.064;4.580;2023-09-19T05:52:03;8.00;;;2.95;;
75261;SDS011;63859;51.064;4.580;2023-09-19T05:54:32;13.85;;;2.92;;
75261;SDS011;63859;51.064;4.580;2023-09-19T05:56:59;19.02;;;4.00;;
75261;SDS011;63859;51.064;4.580;2023-09-19T05:59:25;13.57;;;3.33;;
75261;SDS011;63859;51.064;4.580;2023-09-19T06:01:51;10.25;;;3.33;;
75261;SDS011;63859;51.064;4.580;2023-09-19T06:04:17;19.60;;;3.15;;
75261;SDS011;63859;51.064;4.580;2023-09-19T06:06:44;16.73;;;3.60;;
75261;SDS011;63859;51.064;4.580;2023-09-19T06:09:10;15.48;;;3.58;;
75261;SDS011;63859;51.064;4.580;2023-09-19T06:11:36;18.98;;;3.33;;
75261;SDS011;63859;51.064;4.580;2023-09-19T06:14:02;17.45;;;3.35;;
75261;SDS011;63859;51.064;4.580;2023-09-19T06:16:29;15.50;;;3.15;;
75261;SDS011;63859;51.064;4.580;2023-09-19T06:18:56;11.95;;;2.90;;
75261;SDS011;63859;51.064;4.580;2023-09-19T06:21:23;15.98;;;2.88;;
75261;SDS011;63859;51.064;4.580;2023-09-19T06:23:49;20.95;;;3.42;;
75261;SDS011;63859;51.064;4.580;2023-09-19T06:26:15;11.88;;;2.90;;
75261;SDS011;63859;51.064;4.580;2023-09-19T06:28:40;17.08;;;3.22;;
75261;SDS011;63859;51.064;4.580;2023-09-19T06:31:07;18.48;;;3.28;;
75261;SDS011;63859;51.064;4.580;2023-09-19T06:33:35;13.07;;;3.20;;
75261;SDS011;63859;51.064;4.580;2023-09-19T06:36:07;20.40;;;3.08;;
75261;SDS011;63859;51.064;4.580;2023-09-19T06:38:33;17.10;;;3.15;;
75261;SDS011;63859;51.064;4.580;2023-09-19T06:41:02;17.33;;;3.60;;
75261;SDS011;63859;51.064;4.580;2023-09-19T06:43:32;16.05;;;2.75;;
75261;SDS011;63859;51.064;4.580;2023-09-19T06:45:59;15.48;;;3.03;;
75261;SDS011;63859;51.064;4.580;2023-09-19T06:48:26;14.65;;;3.00;;
75261;SDS011;63859;51.064;4.580;2023-09-19T06:50:55;12.88;;;3.42;;
75261;SDS011;63859;51.064;4.580;2023-09-19T06:53:21;14.20;;;2.88;;
75261;SDS011;63859;51.064;4.580;2023-09-19T06:55:48;13.63;;;3.10;;
75261;SDS011;63859;51.064;4.580;2023-09-19T06:58:15;16.58;;;3.45;;
75261;SDS011;63859;51.064;4.580;2023-09-19T07:00:41;19.38;;;3.13;;
75261;SDS011;63859;51.064;4.580;2023-09-19T07:03:07;16.83;;;3.10;;
75261;SDS011;63859;51.064;4.580;2023-09-19T07:05:36;26.05;;;3.53;;
75261;SDS011;63859;51.064;4.580;2023-09-19T07:08:04;16.23;;;3.15;;
75261;SDS011;63859;51.064;4.580;2023-09-19T07:10:35;9.20;;;2.35;;
75261;SDS011;63859;51.064;4.580;2023-09-19T07:13:02;20.48;;;3.33;;
75261;SDS011;63859;51.064;4.580;2023-09-19T07:15:29;15.52;;;2.88;;
75261;SDS011;63859;51.064;4.580;2023-09-19T07:18:00;13.13;;;3.28;;
75261;SDS011;63859;51.064;4.580;2023-09-19T07:20:26;17.15;;;3.13;;
75261;SDS011;63859;51.064;4.580;2023-09-19T07:22:53;12.95;;;2.90;;
75261;SDS011;63859;51.064;4.580;2023-09-19T07:25:25;14.88;;;2.83;;
75261;SDS011;63859;51.064;4.580;2023-09-19T07:27:51;15.20;;;3.22;;
75261;SDS011;63859;51.064;4.580;2023-09-19T07:30:16;12.77;;;2.90;;
75261;SDS011;63859;51.064;4.580;2023-09-19T07:32:42;12.90;;;3.67;;
75261;SDS011;63859;51.064;4.580;2023-09-19T07:35:08;10.77;;;3.05;;
75261;SDS011;63859;51.064;4.580;2023-09-19T07:37:34;17.70;;;3.20;;
75261;SDS011;63859;51.064;4.580;2023-09-19T07:40:01;16.25;;;3.20;;
75261;SDS011;63859;51.064;4.580;2023-09-19T07:42:32;16.70;;;3.38;;
75261;SDS011;63859;51.064;4.580;2023-09-19T07:45:00;13.93;;;3.08;;
75261;SDS011;63859;51.064;4.580;2023-09-19T07:47:26;13.93;;;3.20;;
75261;SDS011;63859;51.064;4.580;2023-09-19T07:49:52;14.10;;;3.20;;
75261;SDS011;63859;51.064;4.580;2023-09-19T07:52:19;15.15;;;3.38;;
75261;SDS011;63859;51.064;4.580;2023-09-19T07:54:47;17.25;;;3.15;;
75261;SDS011;63859;51.064;4.580;2023-09-19T07:57:14;14.82;;;3.08;;
75261;SDS011;63859;51.064;4.580;2023-09-19T07:59:40;14.15;;;3.30;;
75261;SDS011;63859;51.064;4.580;2023-09-19T08:02:07;13.02;;;2.75;;
75261;SDS011;63859;51.064;4.580;2023-09-19T08:04:40;17.85;;;3.28;;
75261;SDS011;63859;51.064;4.580;2023-09-19T08:07:11;14.50;;;3.45;;
75261;SDS011;63859;51.064;4.580;2023-09-19T08:09:38;14.18;;;2.85;;
75261;SDS011;63859;51.064;4.580;2023-09-19T08:12:05;12.60;;;2.95;;
75261;SDS011;63859;51.064;4.580;2023-09-19T08:14:33;12.68;;;2.55;;
75261;SDS011;63859;51.064;4.580;2023-09-19T08:16:59;14.10;;;3.10;;
75261;SDS011;63859;51.064;4.580;2023-09-19T08:19:25;13.98;;;3.13;;
75261;SDS011;63859;51.064;4.580;2023-09-19T08:21:56;16.05;;;3.20;;
75261;SDS011;63859;51.064;4.580;2023-09-19T08:24:25;16.23;;;3.00;;
75261;SDS011;63859;51.064;4.580;2023-09-19T08:26:55;13.38;;;2.88;;
75261;SDS011;63859;51.064;4.580;2023-09-19T08:29:22;16.08;;;3.00;;
75261;SDS011;63859;51.064;4.580;2023-09-19T08:31:55;12.07;;;3.22;;
75261;SDS011;63859;51.064;4.580;2023-09-19T08:34:22;17.13;;;3.25;;
75261;SDS011;63859;51.064;4.580;2023-09-19T08:36:52;12.45;;;3.25;;
75261;SDS011;63859;51.064;4.580;2023-09-19T08:39:22;13.68;;;3.25;;
75261;SDS011;63859;51.064;4.580;2023-09-19T08:41:48;21.70;;;3.45;;
75261;SDS011;63859;51.064;4.580;2023-09-19T08:44:14;12.73;;;2.97;;
75261;SDS011;63859;51.064;4.580;2023-09-19T08:46:41;16.48;;;3.42;;
75261;SDS011;63859;51.064;4.580;2023-09-19T08:52:32;16.10;;;3.20;;
75261;SDS011;63859;51.064;4.580;2023-09-19T08:55:06;13.52;;;2.92;;
75261;SDS011;63859;51.064;4.580;2023-09-19T08:57:35;20.90;;;3.50;;
75261;SDS011;63859;51.064;4.580;2023-09-19T09:00:02;9.00;;;2.53;;
75261;SDS011;63859;51.064;4.580;2023-09-19T09:02:37;19.92;;;3.42;;
75261;SDS011;63859;51.064;4.580;2023-09-19T09:05:10;12.15;;;3.38;;
75261;SDS011;63859;51.064;4.580;2023-09-19T09:07:39;14.95;;;3.03;;
75261;SDS011;63859;51.064;4.580;2023-09-19T09:10:06;14.23;;;2.95;;
75261;SDS011;63859;51.064;4.580;2023-09-19T09:12:33;15.15;;;3.10;;
75261;SDS011;63859;51.064;4.580;2023-09-19T09:15:02;17.15;;;3.15;;
75261;SDS011;63859;51.064;4.580;2023-09-19T09:17:29;14.57;;;3.30;;
75261;SDS011;63859;51.064;4.580;2023-09-19T09:19:55;16.40;;;2.78;;
75261;SDS011;63859;51.064;4.580;2023-09-19T09:22:22;14.70;;;3.05;;
75261;SDS011;63859;51.064;4.580;2023-09-19T09:24:52;12.98;;;2.80;;
75261;SDS011;63859;51.064;4.580;2023-09-19T09:27:28;14.63;;;2.90;;
75261;SDS011;63859;51.064;4.580;2023-09-19T09:29:54;16.63;;;3.22;;
75261;SDS011;63859;51.064;4.580;2023-09-19T09:32:29;10.38;;;2.50;;
75261;SDS011;63859;51.064;4.580;2023-09-19T09:35:01;11.23;;;2.53;;
75261;SDS011;63859;51.064;4.580;2023-09-19T09:37:34;13.55;;;3.00;;
75261;SDS011;63859;51.064;4.580;2023-09-19T09:40:03;14.63;;;3.65;;
75261;SDS011;63859;51.064;4.580;2023-09-19T09:42:55;17.98;;;2.80;;
75261;SDS011;63859;51.064;4.580;2023-09-19T09:45:24;9.13;;;2.88;;
75261;SDS011;63859;51.064;4.580;2023-09-19T09:47:59;14.82;;;3.17;;
75261;SDS011;63859;51.064;4.580;2023-09-19T09:58:36;9.95;;;2.92;;
75261;SDS011;63859;51.064;4.580;2023-09-19T10:01:13;12.70;;;2.63;;
75261;SDS011;63859;51.064;4.580;2023-09-19T10:03:41;10.15;;;2.30;;
75261;SDS011;63859;51.064;4.580;2023-09-19T10:06:15;9.57;;;2.35;;
75261;SDS011;63859;51.064;4.580;2023-09-19T10:08:57;7.90;;;1.98;;
75261;SDS011;63859;51.064;4.580;2023-09-19T10:11:43;10.48;;;2.70;;
75261;SDS011;63859;51.064;4.580;2023-09-19T10:14:19;11.07;;;2.92;;
75261;SDS011;63859;51.064;4.580;2023-09-19T10:16:49;7.18;;;1.80;;
75261;SDS011;63859;51.064;4.580;2023-09-19T10:19:29;9.90;;;2.80;;
75261;SDS011;63859;51.064;4.580;2023-09-19T10:22:01;7.25;;;2.42;;
75261;SDS011;63859;51.064;4.580;2023-09-19T10:24:29;9.77;;;2.75;;
75261;SDS011;63859;51.064;4.580;2023-09-19T10:26:56;5.80;;;2.22;;
75261;SDS011;63859;51.064;4.580;2023-09-19T10:29:22;11.88;;;2.15;;
75261;SDS011;63859;51.064;4.580;2023-09-19T10:31:50;9.40;;;2.03;;
75261;SDS011;63859;51.064;4.580;2023-09-19T10:34:18;7.90;;;2.47;;
75261;SDS011;63859;51.064;4.580;2023-09-19T10:36:46;8.43;;;2.33;;
75261;SDS011;63859;51.064;4.580;2023-09-19T10:39:15;6.88;;;2.15;;
75261;SDS011;63859;51.064;4.580;2023-09-19T10:41:51;8.63;;;1.90;;
75261;SDS011;63859;51.064;4.580;2023-09-19T10:44:24;6.57;;;2.08;;
75261;SDS011;63859;51.064;4.580;2023-09-19T10:46:50;8.93;;;2.17;;
75261;SDS011;63859;51.064;4.580;2023-09-19T10:49:18;9.32;;;2.22;;
75261;SDS011;63859;51.064;4.580;2023-09-19T10:51:45;8.88;;;2.22;;
75261;SDS011;63859;51.064;4.580;2023-09-19T10:54:15;7.45;;;1.80;;
75261;SDS011;63859;51.064;4.580;2023-09-19T10:56:46;7.10;;;1.80;;
75261;SDS011;63859;51.064;4.580;2023-09-19T10:59:17;8.90;;;1.70;;
75261;SDS011;63859;51.064;4.580;2023-09-19T11:01:47;9.15;;;1.95;;
75261;SDS011;63859;51.064;4.580;2023-09-19T11:07:00;8.02;;;1.98;;
75261;SDS011;63859;51.064;4.580;2023-09-19T11:09:48;7.45;;;1.80;;
75261;SDS011;63859;51.064;4.580;2023-09-19T11:15:02;5.07;;;1.90;;
75261;SDS011;63859;51.064;4.580;2023-09-19T11:17:37;7.32;;;1.67;;
75261;SDS011;63859;51.064;4.580;2023-09-19T11:30:37;5.00;;;1.70;;
75261;SDS011;63859;51.064;4.580;2023-09-19T11:36:06;4.90;;;1.40;;
75261;SDS011;63859;51.064;4.580;2023-09-19T11:43:53;9.43;;;1.50;;
75261;SDS011;63859;51.064;4.580;2023-09-19T11:46:29;4.75;;;1.23;;
75261;SDS011;63859;51.064;4.580;2023-09-19T11:49:04;4.40;;;1.10;;
75261;SDS011;63859;51.064;4.580;2023-09-19T11:51:41;5.68;;;1.60;;
75261;SDS011;63859;51.064;4.580;2023-09-19T11:54:12;5.10;;;1.40;;
75261;SDS011;63859;51.064;4.580;2023-09-19T11:56:48;4.60;;;1.45;;
75261;SDS011;63859;51.064;4.580;2023-09-19T11:59:22;8.10;;;1.60;;
75261;SDS011;63859;51.064;4.580;2023-09-19T12:01:53;7.00;;;1.40;;
75261;SDS011;63859;51.064;4.580;2023-09-19T12:04:38;5.55;;;1.77;;
75261;SDS011;63859;51.064;4.580;2023-09-19T12:07:16;4.82;;;1.38;;
75261;SDS011;63859;51.064;4.580;2023-09-19T12:12:10;5.95;;;1.52;;
75261;SDS011;63859;51.064;4.580;2023-09-19T12:14:41;6.57;;;1.70;;
75261;SDS011;63859;51.064;4.580;2023-09-19T12:17:16;8.82;;;1.67;;
75261;SDS011;63859;51.064;4.580;2023-09-19T12:19:55;4.90;;;1.48;;
75261;SDS011;63859;51.064;4.580;2023-09-19T12:22:22;5.28;;;1.60;;
75261;SDS011;63859;51.064;4.580;2023-09-19T12:24:48;5.90;;;1.70;;
75261;SDS011;63859;51.064;4.580;2023-09-19T12:27:15;10.43;;;1.83;;
75261;SDS011;63859;51.064;4.580;2023-09-19T12:29:44;8.60;;;1.70;;
75261;SDS011;63859;51.064;4.580;2023-09-19T12:32:13;5.60;;;1.80;;
75261;SDS011;63859;51.064;4.580;2023-09-19T12:34:42;5.53;;;1.63;;
75261;SDS011;63859;51.064;4.580;2023-09-19T12:37:15;5.47;;;1.45;;
75261;SDS011;63859;51.064;4.580;2023-09-19T12:39:45;4.80;;;1.42;;
75261;SDS011;63859;51.064;4.580;2023-09-19T12:42:14;5.00;;;1.58;;
75261;SDS011;63859;51.064;4.580;2023-09-19T12:44:41;6.45;;;1.92;;
75261;SDS011;63859;51.064;4.580;2023-09-19T12:47:10;8.82;;;1.90;;
75261;SDS011;63859;51.064;4.580;2023-09-19T12:49:41;3.83;;;1.85;;
75261;SDS011;63859;51.064;4.580;2023-09-19T12:52:35;7.05;;;1.40;;
75261;SDS011;63859;51.064;4.580;2023-09-19T13:00:35;5.75;;;1.85;;
75261;SDS011;63859;51.064;4.580;2023-09-19T13:03:36;6.25;;;1.40;;
75261;SDS011;63859;51.064;4.580;2023-09-19T13:06:00;4.47;;;1.77;;
75261;SDS011;63859;51.064;4.580;2023-09-19T13:08:29;8.05;;;1.40;;
75261;SDS011;63859;51.064;4.580;2023-09-19T13:11:06;3.53;;;1.23;;
75261;SDS011;63859;51.064;4.580;2023-09-19T13:14:21;6.97;;;1.80;;
75261;SDS011;63859;51.064;4.580;2023-09-19T13:17:01;10.60;;;2.05;;
75261;SDS011;63859;51.064;4.580;2023-09-19T13:19:48;7.20;;;1.52;;
75261;SDS011;63859;51.064;4.580;2023-09-19T13:25:04;5.40;;;1.65;;
75261;SDS011;63859;51.064;4.580;2023-09-19T13:27:44;5.50;;;1.65;;
75261;SDS011;63859;51.064;4.580;2023-09-19T13:30:13;5.28;;;1.38;;
75261;SDS011;63859;51.064;4.580;2023-09-19T13:32:39;8.82;;;1.77;;
75261;SDS011;63859;51.064;4.580;2023-09-19T13:35:06;5.40;;;1.88;;
75261;SDS011;63859;51.064;4.580;2023-09-19T13:37:34;7.32;;;1.90;;
75261;SDS011;63859;51.064;4.580;2023-09-19T13:40:06;3.97;;;1.52;;
75261;SDS011;63859;51.064;4.580;2023-09-19T13:42:36;4.25;;;1.40;;
75261;SDS011;63859;51.064;4.580;2023-09-19T13:45:02;5.18;;;1.50;;
75261;SDS011;63859;51.064;4.580;2023-09-19T13:47:29;3.42;;;1.60;;
75261;SDS011;63859;51.064;4.580;2023-09-19T13:49:55;4.78;;;1.88;;
75261;SDS011;63859;51.064;4.580;2023-09-19T13:52:22;4.78;;;1.80;;
75261;SDS011;63859;51.064;4.580;2023-09-19T13:54:48;4.10;;;1.42;;
75261;SDS011;63859;51.064;4.580;2023-09-19T13:57:18;7.05;;;1.67;;
75261;SDS011;63859;51.064;4.580;2023-09-19T13:59:43;5.95;;;1.77;;
75261;SDS011;63859;51.064;4.580;2023-09-19T14:02:09;5.97;;;1.90;;
75261;SDS011;63859;51.064;4.580;2023-09-19T14:04:35;8.23;;;1.98;;
75261;SDS011;63859;51.064;4.580;2023-09-19T14:07:01;7.65;;;1.83;;
75261;SDS011;63859;51.064;4.580;2023-09-19T14:09:27;5.60;;;1.80;;
75261;SDS011;63859;51.064;4.580;2023-09-19T14:11:53;5.75;;;1.70;;
75261;SDS011;63859;51.064;4.580;2023-09-19T14:14:19;9.07;;;1.83;;
75261;SDS011;63859;51.064;4.580;2023-09-19T14:16:47;8.15;;;1.80;;
75261;SDS011;63859;51.064;4.580;2023-09-19T14:19:13;7.88;;;2.03;;
75261;SDS011;63859;51.064;4.580;2023-09-19T14:21:41;5.82;;;1.40;;
75261;SDS011;63859;51.064;4.580;2023-09-19T14:24:07;8.00;;;2.00;;
75261;SDS011;63859;51.064;4.580;2023-09-19T14:26:37;3.58;;;1.65;;
75261;SDS011;63859;51.064;4.580;2023-09-19T14:29:03;11.02;;;2.03;;
75261;SDS011;63859;51.064;4.580;2023-09-19T14:31:32;6.65;;;1.90;;
75261;SDS011;63859;51.064;4.580;2023-09-19T14:33:58;6.30;;;1.83;;
75261;SDS011;63859;51.064;4.580;2023-09-19T14:36:24;4.15;;;1.75;;
75261;SDS011;63859;51.064;4.580;2023-09-19T14:38:53;8.45;;;1.92;;
75261;SDS011;63859;51.064;4.580;2023-09-19T14:41:20;7.00;;;2.10;;
75261;SDS011;63859;51.064;4.580;2023-09-19T14:43:46;10.05;;;2.00;;
75261;SDS011;63859;51.064;4.580;2023-09-19T14:46:12;7.25;;;1.73;;
75261;SDS011;63859;51.064;4.580;2023-09-19T14:48:39;5.05;;;1.80;;
75261;SDS011;63859;51.064;4.580;2023-09-19T14:51:05;5.95;;;1.60;;
75261;SDS011;63859;51.064;4.580;2023-09-19T14:53:33;6.35;;;2.10;;
75261;SDS011;63859;51.064;4.580;2023-09-19T14:56:00;6.32;;;2.00;;
75261;SDS011;63859;51.064;4.580;2023-09-19T14:58:28;9.65;;;2.10;;
75261;SDS011;63859;51.064;4.580;2023-09-19T15:01:02;6.72;;;2.10;;
75261;SDS011;63859;51.064;4.580;2023-09-19T15:03:35;7.40;;;2.17;;
75261;SDS011;63859;51.064;4.580;2023-09-19T15:06:02;12.80;;;2.53;;
75261;SDS011;63859;51.064;4.580;2023-09-19T15:08:35;7.43;;;2.08;;
75261;SDS011;63859;51.064;4.580;2023-09-19T15:11:09;6.78;;;1.90;;
75261;SDS011;63859;51.064;4.580;2023-09-19T15:13:35;10.35;;;2.17;;
75261;SDS011;63859;51.064;4.580;2023-09-19T15:16:02;5.07;;;1.80;;
75261;SDS011;63859;51.064;4.580;2023-09-19T15:18:29;6.07;;;1.90;;
75261;SDS011;63859;51.064;4.580;2023-09-19T15:20:55;8.45;;;2.05;;
75261;SDS011;63859;51.064;4.580;2023-09-19T15:23:29;7.50;;;2.35;;
75261;SDS011;63859;51.064;4.580;2023-09-19T15:25:56;4.63;;;2.10;;
75261;SDS011;63859;51.064;4.580;2023-09-19T15:28:22;6.65;;;1.90;;
75261;SDS011;63859;51.064;4.580;2023-09-19T15:30:48;12.73;;;2.00;;
75261;SDS011;63859;51.064;4.580;2023-09-19T15:33:15;7.78;;;2.00;;
75261;SDS011;63859;51.064;4.580;2023-09-19T15:35:40;10.75;;;2.28;;
75261;SDS011;63859;51.064;4.580;2023-09-19T15:38:07;6.68;;;1.90;;
75261;SDS011;63859;51.064;4.580;2023-09-19T15:40:32;9.73;;;2.17;;
75261;SDS011;63859;51.064;4.580;2023-09-19T15:42:59;6.93;;;1.95;;
75261;SDS011;63859;51.064;4.580;2023-09-19T15:45:25;7.43;;;2.25;;
75261;SDS011;63859;51.064;4.580;2023-09-19T15:47:51;9.15;;;2.40;;
75261;SDS011;63859;51.064;4.580;2023-09-19T15:50:18;5.40;;;2.00;;
75261;SDS011;63859;51.064;4.580;2023-09-19T15:52:43;5.63;;;2.05;;
75261;SDS011;63859;51.064;4.580;2023-09-19T15:55:09;5.10;;;2.05;;